Time;durP1;ratioP1;P1;durP2;ratioP2;P2;SDS_P1;SDS_P2;PMS_P1;PMS_P2;Temp;Humidity;BMP_temperature;BMP_pressure;BME280_temperature;BME280_humidity;BME280_pressure;Samples;Min_cycle;Max_cycle;Signal;HPM_P1;HPM_P2
2021/10/05 00:01:50;;;;;;;1.00;0.60;;;;;;;;;;5031269;28;20029;-59
2021/10/05 00:04:16;;;;;;;7.70;1.02;;;;;;;;;;5030986;28;20033;-58
2021/10/05 00:06:42;;;;;;;3.75;0.80;;;;;;;;;;5031005;28;20030;-59
2021/10/05 00:09:08;;;;;;;1.60;0.70;;;;;;;;;;5029912;28;20055;-58
2021/10/05 00:11:34;;;;;;;8.82;0.90;;;;;;;;;;5099421;28;20037;-57
2021/10/05 00:14:00;;;;;;;4.50;0.80;;;;;;;;;;5099351;28;20444;-58
2021/10/05 00:16:26;;;;;;;4.38;0.88;;;;;;;;;;5099139;28;20116;-58
2021/10/05 00:18:52;;;;;;;3.75;0.80;;;;;;;;;;5082789;27;20038;-58
2021/10/05 00:21:19;;;;;;;3.83;0.90;;;;;;;;;;5135024;27;20015;-58
2021/10/05 00:23:45;;;;;;;2.97;0.90;;;;;;;;;;5134900;27;20437;-58
2021/10/05 00:26:11;;;;;;;5.28;0.90;;;;;;;;;;5047274;27;20026;-58
2021/10/05 00:28:37;;;;;;;2.60;1.00;;;;;;;;;;5078607;28;20063;-58
2021/10/05 00:31:03;;;;;;;3.47;0.80;;;;;;;;;;5010726;28;20122;-58
2021/10/05 00:33:29;;;;;;;2.17;0.80;;;;;;;;;;5010788;28;20470;-58
2021/10/05 00:35:55;;;;;;;4.30;0.88;;;;;;;;;;5010842;28;20563;-58
2021/10/05 00:38:21;;;;;;;1.60;0.90;;;;;;;;;;5011062;28;20100;-59
2021/10/05 00:40:47;;;;;;;1.33;0.80;;;;;;;;;;5010325;28;20140;-58
2021/10/05 00:43:13;;;;;;;6.60;0.90;;;;;;;;;;5011146;28;20358;-58
2021/10/05 00:45:39;;;;;;;6.85;1.00;;;;;;;;;;5010640;28;20021;-58
2021/10/05 00:48:05;;;;;;;6.68;1.00;;;;;;;;;;5010648;28;20030;-58
2021/10/05 00:50:32;;;;;;;5.93;0.98;;;;;;;;;;5010827;28;20369;-58
2021/10/05 00:52:58;;;;;;;0.98;0.70;;;;;;;;;;5010952;28;20048;-58
2021/10/05 00:55:24;;;;;;;1.85;0.77;;;;;;;;;;5010625;28;20091;-59
2021/10/05 00:57:51;;;;;;;2.17;0.90;;;;;;;;;;5025714;28;20025;-59
2021/10/05 01:00:17;;;;;;;1.83;0.82;;;;;;;;;;5029902;28;20038;-59
2021/10/05 01:02:44;;;;;;;5.70;1.02;;;;;;;;;;5030424;28;20049;-58
2021/10/05 01:05:10;;;;;;;3.72;0.88;;;;;;;;;;5098292;28;20053;-59
2021/10/05 01:07:36;;;;;;;8.75;0.93;;;;;;;;;;5030085;28;20491;-58
2021/10/05 01:10:02;;;;;;;2.10;0.68;;;;;;;;;;5029951;28;20049;-60
2021/10/05 01:12:28;;;;;;;2.40;1.15;;;;;;;;;;5020886;28;20032;-59
2021/10/05 01:14:54;;;;;;;4.65;0.90;;;;;;;;;;5010283;28;20134;-58
2021/10/05 01:17:20;;;;;;;3.95;1.00;;;;;;;;;;5010431;28;20030;-58
2021/10/05 01:19:46;;;;;;;10.25;0.90;;;;;;;;;;5118184;27;20062;-59
2021/10/05 01:22:12;;;;;;;5.53;0.90;;;;;;;;;;5133808;27;20447;-59
2021/10/05 01:24:38;;;;;;;4.05;0.80;;;;;;;;;;5133842;27;20494;-60
2021/10/05 01:27:05;;;;;;;1.25;0.70;;;;;;;;;;5133975;27;20065;-60
2021/10/05 01:29:32;;;;;;;5.75;1.02;;;;;;;;;;5110235;27;20021;-59
2021/10/05 01:32:00;;;;;;;3.42;0.80;;;;;;;;;;5029416;28;20045;-59
2021/10/05 01:34:27;;;;;;;3.88;0.90;;;;;;;;;;5030160;28;20121;-61
2021/10/05 01:36:54;;;;;;;5.25;0.80;;;;;;;;;;5029915;28;20017;-59
2021/10/05 01:39:27;;;;;;;2.53;0.80;;;;;;;;;;5029507;28;20085;-59
2021/10/05 01:41:55;;;;;;;2.15;0.85;;;;;;;;;;5029730;28;20358;-59
2021/10/05 01:44:21;;;;;;;5.13;0.90;;;;;;;;;;5096469;28;20021;-58
2021/10/05 01:46:49;;;;;;;2.38;0.60;;;;;;;;;;5029605;28;20442;-59
2021/10/05 01:49:15;;;;;;;1.67;0.80;;;;;;;;;;5029585;28;20469;-59
2021/10/05 01:51:41;;;;;;;3.33;0.90;;;;;;;;;;5029490;28;20033;-59
2021/10/05 01:54:08;;;;;;;8.48;0.95;;;;;;;;;;5122531;27;20027;-59
2021/10/05 01:56:34;;;;;;;7.25;0.80;;;;;;;;;;5132542;27;20011;-59
2021/10/05 01:59:00;;;;;;;4.93;0.70;;;;;;;;;;5133269;28;20028;-59
2021/10/05 02:01:26;;;;;;;4.78;0.80;;;;;;;;;;5058587;27;20112;-59
2021/10/05 02:03:52;;;;;;;2.92;0.70;;;;;;;;;;5097508;28;20060;-59
2021/10/05 02:06:18;;;;;;;5.55;0.73;;;;;;;;;;5029435;28;20057;-59
2021/10/05 02:08:44;;;;;;;1.27;0.60;;;;;;;;;;5029549;28;20014;-59
2021/10/05 02:11:10;;;;;;;8.45;0.93;;;;;;;;;;5029257;28;20026;-59
2021/10/05 02:13:36;;;;;;;8.30;0.90;;;;;;;;;;5029468;28;20021;-60
2021/10/05 02:16:02;;;;;;;4.50;0.93;;;;;;;;;;5097203;28;20061;-58
2021/10/05 02:18:29;;;;;;;5.50;0.80;;;;;;;;;;5062733;28;20039;-58
2021/10/05 02:20:56;;;;;;;3.28;0.80;;;;;;;;;;5133119;28;20041;-59
2021/10/05 02:23:23;;;;;;;1.83;0.60;;;;;;;;;;5114784;28;20171;-58
2021/10/05 02:25:49;;;;;;;4.75;0.95;;;;;;;;;;5132695;28;20080;-58
2021/10/05 02:28:15;;;;;;;3.42;0.80;;;;;;;;;;5133054;28;20027;-58
2021/10/05 02:30:41;;;;;;;4.15;0.82;;;;;;;;;;5132656;28;20456;-58
2021/10/05 02:33:07;;;;;;;1.52;0.80;;;;;;;;;;5133015;28;20043;-59
2021/10/05 02:35:33;;;;;;;3.25;0.80;;;;;;;;;;5080334;28;20421;-59
2021/10/05 02:37:59;;;;;;;3.97;0.80;;;;;;;;;;5009179;28;20022;-58
2021/10/05 02:40:25;;;;;;;2.67;0.70;;;;;;;;;;5008979;28;20366;-58
2021/10/05 02:42:51;;;;;;;11.15;0.80;;;;;;;;;;5008983;28;20052;-58
2021/10/05 02:45:17;;;;;;;1.30;0.70;;;;;;;;;;5009178;28;20063;-58
2021/10/05 02:47:43;;;;;;;5.20;0.80;;;;;;;;;;5008872;28;20030;-58
2021/10/05 02:50:10;;;;;;;2.05;0.80;;;;;;;;;;5008829;28;20030;-59
2021/10/05 02:52:36;;;;;;;4.30;0.82;;;;;;;;;;5106246;28;20114;-59
2021/10/05 02:55:02;;;;;;;2.15;0.73;;;;;;;;;;5132994;28;20169;-60
2021/10/05 02:57:28;;;;;;;1.67;1.02;;;;;;;;;;5132723;27;20098;-59
2021/10/05 02:59:54;;;;;;;1.80;0.70;;;;;;;;;;5132434;28;20418;-59
2021/10/05 03:02:20;;;;;;;1.88;0.90;;;;;;;;;;5133065;27;20023;-59
2021/10/05 03:04:46;;;;;;;3.95;1.00;;;;;;;;;;5133050;28;20023;-60
2021/10/05 03:07:13;;;;;;;5.90;0.80;;;;;;;;;;5133156;27;20079;-59
2021/10/05 03:09:39;;;;;;;5.50;1.00;;;;;;;;;;5092898;27;20034;-59
2021/10/05 03:12:05;;;;;;;4.90;0.85;;;;;;;;;;5031793;28;20533;-60
2021/10/05 03:14:31;;;;;;;3.50;0.77;;;;;;;;;;5031998;28;20018;-59
2021/10/05 03:16:57;;;;;;;2.10;0.90;;;;;;;;;;5031587;28;20044;-59
2021/10/05 03:19:23;;;;;;;3.30;0.88;;;;;;;;;;5106108;27;20035;-59
2021/10/05 03:21:49;;;;;;;4.65;0.90;;;;;;;;;;5136239;27;20027;-59
2021/10/05 03:24:15;;;;;;;3.20;0.90;;;;;;;;;;5117585;27;20031;-59
2021/10/05 03:26:41;;;;;;;11.70;0.82;;;;;;;;;;5043303;27;20554;-58
2021/10/05 03:29:10;;;;;;;4.60;1.10;;;;;;;;;;5031572;28;20171;-59
2021/10/05 03:31:36;;;;;;;6.68;0.80;;;;;;;;;;5031167;28;20037;-60
2021/10/05 03:34:02;;;;;;;6.18;0.82;;;;;;;;;;5100188;28;20365;-59
2021/10/05 03:36:28;;;;;;;3.80;0.60;;;;;;;;;;5031558;28;20033;-59
2021/10/05 03:38:54;;;;;;;1.65;0.60;;;;;;;;;;5031281;28;20116;-59
2021/10/05 03:41:26;;;;;;;2.58;0.60;;;;;;;;;;5091321;28;20097;-59
2021/10/05 03:43:57;;;;;;;6.30;1.00;;;;;;;;;;5011611;28;20022;-59
2021/10/05 03:46:23;;;;;;;2.22;0.75;;;;;;;;;;5079638;28;20068;-59
2021/10/05 03:48:49;;;;;;;5.68;0.75;;;;;;;;;;5011490;28;20054;-59
2021/10/05 03:51:15;;;;;;;2.53;0.70;;;;;;;;;;5079389;28;20030;-59
2021/10/05 03:53:41;;;;;;;1.42;0.80;;;;;;;;;;5099531;27;20416;-59
2021/10/05 03:56:07;;;;;;;1.58;0.80;;;;;;;;;;5135369;27;20039;-58
2021/10/05 03:58:33;;;;;;;1.80;0.80;;;;;;;;;;5030519;28;20033;-59
2021/10/05 04:01:03;;;;;;;5.63;0.73;;;;;;;;;;5030874;28;20354;-59
2021/10/05 04:03:29;;;;;;;4.05;0.73;;;;;;;;;;5031020;28;20017;-58
2021/10/05 04:05:55;;;;;;;1.80;0.60;;;;;;;;;;5030911;28;20029;-58
2021/10/05 04:08:21;;;;;;;4.68;0.73;;;;;;;;;;5099284;28;20499;-59
2021/10/05 04:10:47;;;;;;;4.35;0.63;;;;;;;;;;5030976;28;20055;-59
2021/10/05 04:13:13;;;;;;;3.45;0.75;;;;;;;;;;5029754;28;20030;-59
2021/10/05 04:15:40;;;;;;;9.13;0.95;;;;;;;;;;5030896;28;20034;-59
2021/10/05 04:18:05;;;;;;;5.50;0.60;;;;;;;;;;5049362;27;20068;-60
2021/10/05 04:20:32;;;;;;;3.58;0.68;;;;;;;;;;5134210;27;20030;-59
2021/10/05 04:22:58;;;;;;;7.82;0.60;;;;;;;;;;5116467;27;20027;-59
2021/10/05 04:25:24;;;;;;;4.97;0.77;;;;;;;;;;5134706;27;20028;-60
2021/10/05 04:27:50;;;;;;;3.05;0.80;;;;;;;;;;5134938;27;20030;-59
2021/10/05 04:30:16;;;;;;;18.02;1.23;;;;;;;;;;5134638;27;20047;-59
2021/10/05 04:32:42;;;;;;;7.63;0.73;;;;;;;;;;5018550;27;20112;-59
2021/10/05 04:35:08;;;;;;;12.00;0.90;;;;;;;;;;5089786;28;20113;-60
2021/10/05 04:37:34;;;;;;;4.43;0.82;;;;;;;;;;5030499;28;20026;-59
2021/10/05 04:40:00;;;;;;;12.27;1.00;;;;;;;;;;5030379;28;20480;-59
2021/10/05 04:42:26;;;;;;;18.77;0.75;;;;;;;;;;5030505;28;20025;-59
2021/10/05 04:44:52;;;;;;;7.95;1.20;;;;;;;;;;5030473;28;20033;-59
2021/10/05 04:47:18;;;;;;;9.05;0.98;;;;;;;;;;5030515;28;20022;-59
2021/10/05 04:49:44;;;;;;;25.33;1.10;;;;;;;;;;5029049;28;20069;-59
2021/10/05 04:52:10;;;;;;;7.18;0.80;;;;;;;;;;5033042;27;20037;-60
2021/10/05 04:54:36;;;;;;;6.43;0.82;;;;;;;;;;5134265;27;20031;-59
2021/10/05 04:57:02;;;;;;;9.32;1.02;;;;;;;;;;5115808;27;20019;-59
2021/10/05 04:59:29;;;;;;;11.90;1.10;;;;;;;;;;5134084;27;20066;-60
2021/10/05 05:01:55;;;;;;;10.40;1.00;;;;;;;;;;5115769;27;20060;-60
2021/10/05 05:04:21;;;;;;;7.40;0.90;;;;;;;;;;5132827;27;20451;-62
2021/10/05 05:06:47;;;;;;;7.32;0.95;;;;;;;;;;5029963;28;20178;-59
2021/10/05 05:09:13;;;;;;;8.30;0.90;;;;;;;;;;5030070;28;20036;-60
2021/10/05 05:11:39;;;;;;;14.48;1.77;;;;;;;;;;5029687;28;20025;-60
2021/10/05 05:14:07;;;;;;;15.80;1.10;;;;;;;;;;5010119;28;20061;-60
2021/10/05 05:16:34;;;;;;;8.10;0.90;;;;;;;;;;5077717;28;20098;-62
2021/10/05 05:19:01;;;;;;;12.05;1.08;;;;;;;;;;5078912;27;20027;-63
2021/10/05 05:21:27;;;;;;;5.93;0.90;;;;;;;;;;5077936;27;20528;-61
2021/10/05 05:23:53;;;;;;;11.57;0.90;;;;;;;;;;5077711;28;20393;-60
2021/10/05 05:26:19;;;;;;;5.05;0.93;;;;;;;;;;5010274;28;20049;-60
2021/10/05 05:28:45;;;;;;;17.88;1.00;;;;;;;;;;5078200;28;20044;-60
2021/10/05 05:31:11;;;;;;;10.43;0.98;;;;;;;;;;5009086;28;20049;-60
2021/10/05 05:33:37;;;;;;;6.50;0.82;;;;;;;;;;5009920;28;20044;-60
2021/10/05 05:36:03;;;;;;;9.40;0.98;;;;;;;;;;5012345;28;20660;-60
2021/10/05 05:38:29;;;;;;;5.10;0.60;;;;;;;;;;5020481;28;20045;-60
2021/10/05 05:40:55;;;;;;;4.45;1.08;;;;;;;;;;5019234;28;20018;-60
2021/10/05 05:43:21;;;;;;;27.90;1.27;;;;;;;;;;5017697;28;20021;-60
2021/10/05 05:45:47;;;;;;;6.30;1.38;;;;;;;;;;5023109;28;20028;-58
2021/10/05 05:48:14;;;;;;;17.38;1.30;;;;;;;;;;5058453;28;20015;-59
2021/10/05 05:50:40;;;;;;;10.32;1.30;;;;;;;;;;5043880;28;20029;-62
2021/10/05 05:53:06;;;;;;;4.25;1.00;;;;;;;;;;5024856;28;20025;-59
2021/10/05 05:55:32;;;;;;;6.63;0.82;;;;;;;;;;5018194;28;20030;-59
2021/10/05 05:57:58;;;;;;;12.43;1.15;;;;;;;;;;5016472;28;20022;-59
2021/10/05 06:00:24;;;;;;;3.60;1.10;;;;;;;;;;5024581;28;20061;-62
2021/10/05 06:02:51;;;;;;;9.57;1.25;;;;;;;;;;5019845;28;20017;-64
2021/10/05 06:05:17;;;;;;;8.20;0.80;;;;;;;;;;5019800;28;20026;-61
2021/10/05 06:07:43;;;;;;;11.82;0.93;;;;;;;;;;5018172;28;20062;-59
2021/10/05 06:10:10;;;;;;;8.63;1.02;;;;;;;;;;5020048;28;20095;-59
2021/10/05 06:12:40;;;;;;;7.03;0.95;;;;;;;;;;5014590;28;20095;-59
2021/10/05 06:15:07;;;;;;;4.20;0.90;;;;;;;;;;5017464;28;20034;-59
2021/10/05 06:17:33;;;;;;;8.43;1.00;;;;;;;;;;5019778;28;20018;-59
2021/10/05 06:19:59;;;;;;;6.43;1.05;;;;;;;;;;5019047;28;20079;-59
2021/10/05 06:22:25;;;;;;;5.28;0.90;;;;;;;;;;5020400;28;20053;-61
2021/10/05 06:24:51;;;;;;;5.88;0.95;;;;;;;;;;5009372;28;20057;-59
2021/10/05 06:27:18;;;;;;;10.65;1.00;;;;;;;;;;5021178;28;20034;-60
2021/10/05 06:29:44;;;;;;;28.45;1.15;;;;;;;;;;5027750;28;20506;-59
2021/10/05 06:32:10;;;;;;;15.57;0.90;;;;;;;;;;5029031;28;20049;-59
2021/10/05 06:34:36;;;;;;;24.00;1.20;;;;;;;;;;5029035;28;20100;-59
2021/10/05 06:37:02;;;;;;;32.38;1.30;;;;;;;;;;5028839;28;20145;-61
2021/10/05 06:39:28;;;;;;;31.52;1.50;;;;;;;;;;5017391;28;20057;-60
2021/10/05 06:41:54;;;;;;;19.70;1.50;;;;;;;;;;5009725;28;20379;-60
2021/10/05 06:44:22;;;;;;;10.65;1.20;;;;;;;;;;5012207;28;20033;-61
2021/10/05 06:46:48;;;;;;;6.05;1.15;;;;;;;;;;5012835;28;20041;-60
2021/10/05 06:49:14;;;;;;;8.30;1.23;;;;;;;;;;5024941;28;20532;-59
2021/10/05 06:51:40;;;;;;;9.05;0.90;;;;;;;;;;5026587;28;20033;-59
2021/10/05 06:54:06;;;;;;;23.67;1.00;;;;;;;;;;5033422;27;20044;-60
2021/10/05 06:56:32;;;;;;;10.75;0.90;;;;;;;;;;5021043;28;20091;-59
2021/10/05 06:58:58;;;;;;;5.55;1.05;;;;;;;;;;5014761;28;20025;-60
2021/10/05 07:01:24;;;;;;;8.02;0.88;;;;;;;;;;5020942;28;20049;-61
2021/10/05 07:03:50;;;;;;;17.17;1.30;;;;;;;;;;5012539;28;20026;-62
2021/10/05 07:06:16;;;;;;;11.00;1.00;;;;;;;;;;5012360;28;20059;-59
2021/10/05 07:08:42;;;;;;;6.07;0.90;;;;;;;;;;5012638;28;20033;-59
2021/10/05 07:11:08;;;;;;;5.45;0.93;;;;;;;;;;5015671;28;20507;-59
2021/10/05 07:13:34;;;;;;;3.78;0.93;;;;;;;;;;5022816;28;20022;-59
2021/10/05 07:16:00;;;;;;;5.30;0.80;;;;;;;;;;5022653;28;20018;-59
2021/10/05 07:18:31;;;;;;;3.80;0.90;;;;;;;;;;5054286;27;20027;-60
2021/10/05 07:20:57;;;;;;;2.22;1.00;;;;;;;;;;5021390;28;20030;-59
2021/10/05 07:23:23;;;;;;;5.22;0.77;;;;;;;;;;5022700;28;20026;-59
2021/10/05 07:25:49;;;;;;;3.88;0.80;;;;;;;;;;5019990;28;20025;-60
2021/10/05 07:28:15;;;;;;;23.55;0.85;;;;;;;;;;5030174;28;20029;-59
2021/10/05 07:30:43;;;;;;;18.05;1.23;;;;;;;;;;5029381;28;20045;-58
2021/10/05 07:33:09;;;;;;;6.70;0.85;;;;;;;;;;5018464;28;20109;-62
2021/10/05 07:35:35;;;;;;;4.28;0.80;;;;;;;;;;5019163;28;20015;-60
2021/10/05 07:38:02;;;;;;;7.03;1.00;;;;;;;;;;5021875;28;20078;-60
2021/10/05 07:40:29;;;;;;;2.95;0.68;;;;;;;;;;5020422;28;20029;-59
2021/10/05 07:42:56;;;;;;;2.67;0.90;;;;;;;;;;5020153;28;20017;-59
2021/10/05 07:45:25;;;;;;;4.72;0.88;;;;;;;;;;5017033;28;20656;-59
2021/10/05 07:47:51;;;;;;;5.32;1.00;;;;;;;;;;5015692;28;20022;-60
2021/10/05 07:50:17;;;;;;;4.15;0.80;;;;;;;;;;5029497;28;20045;-60
2021/10/05 07:52:43;;;;;;;8.65;0.80;;;;;;;;;;5064369;27;20052;-59
2021/10/05 07:55:10;;;;;;;4.53;1.00;;;;;;;;;;5134414;27;20024;-60
2021/10/05 07:57:36;;;;;;;4.95;0.75;;;;;;;;;;5053687;27;20051;-58
2021/10/05 08:00:03;;;;;;;4.90;0.80;;;;;;;;;;5030810;28;20037;-59
2021/10/05 08:02:29;;;;;;;3.92;0.70;;;;;;;;;;5031334;28;20028;-59
2021/10/05 08:04:56;;;;;;;2.25;0.73;;;;;;;;;;5027527;28;20061;-59
2021/10/05 08:07:26;;;;;;;2.05;0.75;;;;;;;;;;5011365;28;20108;-58
2021/10/05 08:09:52;;;;;;;4.95;0.70;;;;;;;;;;5011297;28;20026;-58
2021/10/05 08:12:18;;;;;;;8.35;0.80;;;;;;;;;;5011594;28;20060;-58
2021/10/05 08:14:44;;;;;;;5.15;1.08;;;;;;;;;;5011237;28;20029;-59
2021/10/05 08:17:11;;;;;;;5.45;0.80;;;;;;;;;;5011470;28;20105;-59
2021/10/05 08:19:37;;;;;;;4.00;0.75;;;;;;;;;;5111455;27;20459;-59
2021/10/05 08:22:03;;;;;;;2.53;0.63;;;;;;;;;;5048302;27;20032;-59
2021/10/05 08:24:29;;;;;;;1.23;0.70;;;;;;;;;;5030896;28;20034;-59
2021/10/05 08:26:55;;;;;;;3.20;0.68;;;;;;;;;;5030902;28;20041;-59
2021/10/05 08:29:21;;;;;;;4.80;0.82;;;;;;;;;;5030649;28;20461;-59
2021/10/05 08:31:48;;;;;;;8.10;0.70;;;;;;;;;;5098897;28;20049;-57
2021/10/05 08:34:15;;;;;;;4.15;0.85;;;;;;;;;;5030589;28;20034;-58
2021/10/05 08:36:41;;;;;;;10.43;1.63;;;;;;;;;;5029489;28;20026;-58
2021/10/05 08:39:07;;;;;;;8.05;0.90;;;;;;;;;;5030565;28;20033;-59
2021/10/05 08:41:33;;;;;;;9.18;0.88;;;;;;;;;;5030626;28;20025;-59
2021/10/05 08:43:59;;;;;;;8.07;0.80;;;;;;;;;;5030707;28;20021;-58
2021/10/05 08:46:29;;;;;;;5.22;0.85;;;;;;;;;;5030308;28;20033;-59
2021/10/05 08:48:55;;;;;;;5.68;1.00;;;;;;;;;;5030526;28;20021;-59
2021/10/05 08:51:21;;;;;;;5.47;0.80;;;;;;;;;;5030254;28;20063;-59
2021/10/05 08:53:46;;;;;;;8.30;0.80;;;;;;;;;;5053379;27;20030;-59
2021/10/05 08:56:12;;;;;;;8.98;0.68;;;;;;;;;;5010438;28;20115;-59
2021/10/05 08:58:40;;;;;;;1.75;0.50;;;;;;;;;;5010463;28;20037;-58
2021/10/05 09:01:10;;;;;;;6.43;0.82;;;;;;;;;;5010240;28;20427;-59
2021/10/05 09:03:38;;;;;;;3.85;0.70;;;;;;;;;;5010478;28;20103;-59
2021/10/05 09:06:11;;;;;;;6.38;0.50;;;;;;;;;;5009769;28;20021;-58
2021/10/05 09:08:39;;;;;;;2.88;0.60;;;;;;;;;;5010233;28;20034;-59
2021/10/05 09:11:05;;;;;;;4.78;0.70;;;;;;;;;;5020081;28;20022;-59
2021/10/05 09:13:32;;;;;;;1.75;0.60;;;;;;;;;;5030032;28;20170;-59
2021/10/05 09:15:58;;;;;;;1.70;0.70;;;;;;;;;;5030054;28;20057;-58
2021/10/05 09:18:24;;;;;;;2.55;0.77;;;;;;;;;;5060802;27;20030;-60
2021/10/05 09:20:50;;;;;;;2.33;0.60;;;;;;;;;;5018449;28;20026;-64
2021/10/05 09:23:17;;;;;;;2.80;0.65;;;;;;;;;;5021364;28;20500;-59
2021/10/05 09:25:45;;;;;;;1.45;0.60;;;;;;;;;;5029277;28;20037;-60
2021/10/05 09:28:33;;;;;;;1.75;0.57;;;;;;;;;;5026183;28;20084;-60
2021/10/05 09:31:01;;;;;;;2.10;0.60;;;;;;;;;;5012652;28;20129;-60
2021/10/05 09:33:28;;;;;;;2.28;0.85;;;;;;;;;;5019770;28;20105;-59
2021/10/05 09:35:54;;;;;;;1.55;0.55;;;;;;;;;;5020150;28;20026;-59
2021/10/05 09:38:21;;;;;;;4.35;0.70;;;;;;;;;;5086233;28;20029;-59
2021/10/05 09:41:04;;;;;;;2.75;0.65;;;;;;;;;;5014466;28;20025;-60
2021/10/05 09:43:30;;;;;;;3.75;0.65;;;;;;;;;;5009747;28;20033;-61
2021/10/05 09:46:09;;;;;;;2.25;0.60;;;;;;;;;;5015300;28;20034;-59
2021/10/05 09:48:35;;;;;;;2.90;0.70;;;;;;;;;;5018463;28;20090;-59
2021/10/05 09:51:14;;;;;;;3.20;0.73;;;;;;;;;;5018065;28;20457;-59
2021/10/05 09:53:40;;;;;;;2.13;0.77;;;;;;;;;;5029479;28;20030;-59
2021/10/05 09:56:07;;;;;;;2.38;0.68;;;;;;;;;;5019138;28;20032;-59
2021/10/05 09:58:33;;;;;;;4.53;0.80;;;;;;;;;;5017003;28;20151;-59
2021/10/05 10:00:59;;;;;;;4.72;0.70;;;;;;;;;;5017499;28;20109;-58
2021/10/05 10:03:26;;;;;;;7.85;0.90;;;;;;;;;;5019973;28;20022;-59
2021/10/05 10:05:52;;;;;;;2.53;0.70;;;;;;;;;;5017548;28;20021;-59
2021/10/05 10:08:21;;;;;;;3.40;0.60;;;;;;;;;;5019916;28;20138;-59
2021/10/05 10:10:47;;;;;;;10.25;1.38;;;;;;;;;;5018424;28;20033;-59
2021/10/05 10:13:13;;;;;;;3.63;0.95;;;;;;;;;;5018794;28;20030;-59
2021/10/05 10:15:42;;;;;;;3.40;0.80;;;;;;;;;;5029278;28;20026;-60
2021/10/05 10:18:11;;;;;;;8.57;1.15;;;;;;;;;;5022042;28;20346;-59
2021/10/05 10:20:38;;;;;;;16.98;0.70;;;;;;;;;;5024336;28;20030;-60
2021/10/05 10:23:15;;;;;;;5.80;0.70;;;;;;;;;;5019595;28;20030;-59
2021/10/05 10:25:51;;;;;;;5.88;0.90;;;;;;;;;;5021748;28;20031;-59
2021/10/05 10:28:16;;;;;;;4.55;0.88;;;;;;;;;;5015599;28;20030;-60
2021/10/05 10:30:50;;;;;;;7.28;0.95;;;;;;;;;;5012877;28;20114;-59
2021/10/05 10:33:17;;;;;;;5.10;0.82;;;;;;;;;;5025881;28;20030;-60
2021/10/05 10:35:49;;;;;;;22.30;1.02;;;;;;;;;;5026358;28;20029;-59
2021/10/05 10:38:15;;;;;;;;;;;;;;;;;;5021857;28;20025;-59
2021/10/05 10:40:41;;;;;;;24.00;1.10;;;;;;;;;;5023162;28;19913;-59
2021/10/05 10:43:14;;;;;;;7.80;1.08;;;;;;;;;;5021408;28;20022;-60
2021/10/05 10:45:44;;;;;;;14.65;1.10;;;;;;;;;;5015108;28;20400;-60
2021/10/05 10:48:10;;;;;;;8.88;1.52;;;;;;;;;;5022022;28;20105;-59
2021/10/05 10:50:37;;;;;;;6.00;0.98;;;;;;;;;;5020184;28;20109;-59
2021/10/05 10:53:07;;;;;;;9.07;1.15;;;;;;;;;;5068315;27;20072;-59
2021/10/05 10:55:34;;;;;;;8.00;0.90;;;;;;;;;;5050871;27;20022;-60
2021/10/05 10:58:00;;;;;;;8.48;1.17;;;;;;;;;;5023003;28;20037;-60
2021/10/05 11:00:27;;;;;;;12.50;0.98;;;;;;;;;;5020561;28;20038;-60
2021/10/05 11:02:53;;;;;;;7.75;1.00;;;;;;;;;;5022674;28;20014;-60
2021/10/05 11:05:23;;;;;;;7.43;1.00;;;;;;;;;;5012162;28;20468;-60
2021/10/05 11:07:53;;;;;;;8.52;0.95;;;;;;;;;;5013931;28;20477;-60
2021/10/05 11:10:45;;;;;;;7.78;1.00;;;;;;;;;;5020747;28;20042;-60
2021/10/05 11:13:11;;;;;;;4.60;1.07;;;;;;;;;;5015484;28;20550;-59
2021/10/05 11:15:38;;;;;;;7.88;0.90;;;;;;;;;;5022404;28;20255;-59
2021/10/05 11:18:04;;;;;;;3.15;0.88;;;;;;;;;;5029746;27;20022;-59
2021/10/05 11:20:30;;;;;;;3.03;0.90;;;;;;;;;;5019728;28;20037;-61
2021/10/05 11:22:59;;;;;;;5.43;1.00;;;;;;;;;;5023885;28;20046;-59
2021/10/05 11:25:25;;;;;;;6.32;1.17;;;;;;;;;;5021012;28;20464;-60
2021/10/05 11:27:51;;;;;;;3.80;0.80;;;;;;;;;;5022680;28;20066;-59
2021/10/05 11:30:17;;;;;;;7.47;0.90;;;;;;;;;;5022407;28;20045;-59
2021/10/05 11:32:48;;;;;;;6.25;0.70;;;;;;;;;;5020039;28;20329;-59
2021/10/05 11:35:14;;;;;;;4.35;0.77;;;;;;;;;;5024513;28;20473;-62
2021/10/05 11:37:40;;;;;;;4.75;1.02;;;;;;;;;;5017231;28;20037;-63
2021/10/05 11:40:06;;;;;;;2.92;0.80;;;;;;;;;;5022787;28;20342;-59
2021/10/05 11:42:32;;;;;;;2.63;0.80;;;;;;;;;;5021677;28;20010;-59
2021/10/05 11:45:03;;;;;;;4.03;0.85;;;;;;;;;;5023120;28;20116;-62
2021/10/05 11:47:30;;;;;;;3.33;0.70;;;;;;;;;;5019620;28;20037;-60
2021/10/05 11:49:58;;;;;;;4.30;1.00;;;;;;;;;;5020225;28;20018;-61
2021/10/05 11:52:26;;;;;;;4.53;0.85;;;;;;;;;;5024285;27;20029;-60
2021/10/05 11:54:53;;;;;;;5.32;0.80;;;;;;;;;;5019107;28;20030;-59
2021/10/05 11:57:22;;;;;;;3.60;0.90;;;;;;;;;;5014480;28;20110;-59
2021/10/05 11:59:49;;;;;;;4.97;0.80;;;;;;;;;;5011762;28;20129;-60
2021/10/05 12:02:16;;;;;;;3.80;0.82;;;;;;;;;;5011707;28;20051;-59
2021/10/05 12:04:45;;;;;;;2.35;0.82;;;;;;;;;;5011726;28;20097;-59
2021/10/05 12:07:13;;;;;;;3.72;0.90;;;;;;;;;;5011848;28;20026;-59
2021/10/05 12:09:40;;;;;;;2.97;0.90;;;;;;;;;;5011646;28;20034;-59
2021/10/05 12:12:13;;;;;;;4.72;0.80;;;;;;;;;;5081931;28;20105;-59
2021/10/05 12:14:45;;;;;;;4.30;0.77;;;;;;;;;;5031233;28;20485;-59
2021/10/05 12:17:13;;;;;;;3.08;0.90;;;;;;;;;;5031421;28;20022;-59
2021/10/05 12:19:42;;;;;;;25.55;1.83;;;;;;;;;;5117016;27;20034;-58
2021/10/05 12:22:08;;;;;;;15.80;0.93;;;;;;;;;;5135099;27;20031;-58
2021/10/05 12:24:34;;;;;;;10.15;0.98;;;;;;;;;;5135130;27;20474;-59
2021/10/05 12:27:00;;;;;;;9.30;1.00;;;;;;;;;;5135159;27;20027;-58
2021/10/05 12:29:27;;;;;;;17.35;1.25;;;;;;;;;;5078861;28;20064;-58
2021/10/05 12:31:57;;;;;;;7.88;0.80;;;;;;;;;;5011109;28;20053;-59
2021/10/05 12:34:33;;;;;;;17.35;1.10;;;;;;;;;;5011202;28;20026;-60
2021/10/05 12:36:59;;;;;;;18.15;1.55;;;;;;;;;;5011359;28;20537;-59
2021/10/05 12:39:25;;;;;;;15.55;1.90;;;;;;;;;;5015839;28;20101;-60
2021/10/05 12:41:58;;;;;;;17.40;2.53;;;;;;;;;;5020688;28;20492;-61
2021/10/05 12:44:24;;;;;;;19.15;2.08;;;;;;;;;;5010827;28;20033;-59
2021/10/05 12:46:58;;;;;;;26.27;2.47;;;;;;;;;;5020694;28;20057;-59
2021/10/05 12:49:24;;;;;;;14.05;1.92;;;;;;;;;;5013120;28;20047;-59
2021/10/05 12:51:51;;;;;;;13.35;1.60;;;;;;;;;;5086617;28;20025;-59
2021/10/05 12:54:17;;;;;;;13.20;1.95;;;;;;;;;;5050533;27;20051;-60
2021/10/05 12:56:44;;;;;;;13.20;1.60;;;;;;;;;;5030557;28;20025;-59
2021/10/05 12:59:11;;;;;;;19.23;2.03;;;;;;;;;;5030535;28;20042;-60
2021/10/05 13:01:37;;;;;;;12.88;1.80;;;;;;;;;;5030720;28;20108;-58
2021/10/05 13:04:04;;;;;;;14.20;1.75;;;;;;;;;;5029063;28;20033;-59
2021/10/05 13:06:32;;;;;;;24.15;2.63;;;;;;;;;;5030464;28;20083;-59
2021/10/05 13:08:58;;;;;;;27.30;2.35;;;;;;;;;;5030801;28;20040;-60
2021/10/05 13:11:24;;;;;;;15.63;2.08;;;;;;;;;;5030107;28;20025;-60
2021/10/05 13:13:50;;;;;;;21.55;2.13;;;;;;;;;;5030189;28;20029;-59
2021/10/05 13:16:16;;;;;;;21.55;2.00;;;;;;;;;;5030201;28;20025;-59
2021/10/05 13:18:42;;;;;;;16.63;1.92;;;;;;;;;;5074681;27;20477;-59
2021/10/05 13:21:08;;;;;;;17.45;2.22;;;;;;;;;;5029568;28;20038;-62
2021/10/05 13:23:34;;;;;;;19.70;2.00;;;;;;;;;;5030332;28;20022;-62
2021/10/05 13:26:00;;;;;;;14.50;1.98;;;;;;;;;;5029947;28;20025;-59
2021/10/05 13:28:26;;;;;;;12.68;1.60;;;;;;;;;;5097927;28;20117;-59
2021/10/05 13:30:52;;;;;;;14.13;1.70;;;;;;;;;;5097942;28;20042;-59
2021/10/05 13:33:18;;;;;;;12.20;2.20;;;;;;;;;;5029829;28;20094;-59
2021/10/05 13:35:44;;;;;;;39.38;2.58;;;;;;;;;;5025697;28;20403;-66
2021/10/05 13:38:10;;;;;;;28.33;2.38;;;;;;;;;;5009757;28;20497;-63
2021/10/05 13:40:42;;;;;;;29.17;2.35;;;;;;;;;;5009745;28;20049;-64
2021/10/05 13:43:07;;;;;;;19.30;1.85;;;;;;;;;;5086133;28;20022;-62
2021/10/05 13:45:34;;;;;;;25.35;2.08;;;;;;;;;;5019544;28;20454;-59
2021/10/05 13:48:00;;;;;;;30.10;1.92;;;;;;;;;;5013478;28;20419;-61
2021/10/05 13:50:26;;;;;;;29.48;2.17;;;;;;;;;;5080573;28;20484;-63
2021/10/05 13:52:52;;;;;;;12.95;2.03;;;;;;;;;;5022003;28;20076;-63
2021/10/05 13:55:18;;;;;;;12.93;1.65;;;;;;;;;;5019697;28;20040;-64
2021/10/05 13:57:44;;;;;;;18.60;1.90;;;;;;;;;;5009787;28;20022;-62
2021/10/05 14:00:11;;;;;;;12.10;1.73;;;;;;;;;;5009778;28;20044;-60
2021/10/05 14:02:36;;;;;;;15.13;2.00;;;;;;;;;;5014354;28;20101;-63
2021/10/05 14:05:03;;;;;;;20.35;2.22;;;;;;;;;;5015341;28;20533;-62
2021/10/05 14:07:29;;;;;;;18.65;1.95;;;;;;;;;;5019537;28;20025;-63
2021/10/05 14:09:56;;;;;;;16.02;1.38;;;;;;;;;;5018859;28;20039;-62
2021/10/05 14:12:22;;;;;;;19.70;1.60;;;;;;;;;;5028185;28;20034;-62
2021/10/05 14:14:48;;;;;;;12.73;1.10;;;;;;;;;;5029320;28;20033;-59
2021/10/05 14:17:15;;;;;;;10.00;1.70;;;;;;;;;;5029012;28;20460;-63
2021/10/05 14:19:41;;;;;;;13.45;1.70;;;;;;;;;;5029001;28;20089;-63
2021/10/05 14:22:07;;;;;;;16.52;1.30;;;;;;;;;;5029141;28;20029;-58
2021/10/05 14:24:33;;;;;;;14.90;1.63;;;;;;;;;;5015435;28;20082;-65
2021/10/05 14:26:59;;;;;;;6.25;1.25;;;;;;;;;;5009703;28;20026;-62
2021/10/05 14:29:25;;;;;;;13.70;1.33;;;;;;;;;;5009322;28;20057;-65
2021/10/05 14:31:51;;;;;;;9.80;1.20;;;;;;;;;;5009064;28;20069;-65
2021/10/05 14:34:17;;;;;;;7.28;1.30;;;;;;;;;;5015693;28;20034;-63
2021/10/05 14:36:43;;;;;;;9.18;1.40;;;;;;;;;;5081299;28;20030;-58
2021/10/05 14:39:09;;;;;;;7.95;1.00;;;;;;;;;;5013455;28;20045;-59